Time;durP1;ratioP1;P1;durP2;ratioP2;P2;SDS_P1;SDS_P2;PMS_P1;PMS_P2;Temp;Humidity;BMP_temperature;BMP_pressure;BME280_temperature;BME280_humidity;BME280_pressure;Samples;Min_cycle;Max_cycle;Signal;HPM_P1;HPM_P2
2022/12/22 03:25:51;;;;;;;1.85;1.10;;;;;;;9.12;60.17;99848.44;5050288;28;20045;-72
2022/12/22 03:28:20;;;;;;;1.92;1.27;;;;;;;9.14;59.55;99840.97;5055209;28;20075;-72
2022/12/22 03:30:59;;;;;;;1.65;1.20;;;;;;;9.18;60.06;99842.38;5036007;28;20466;-72
2022/12/22 03:33:30;;;;;;;2.80;1.20;;;;;;;9.18;59.71;99836.03;5036540;28;20049;-72
2022/12/22 03:36:00;;;;;;;2.42;1.15;;;;;;;9.18;59.92;99830.59;5065319;28;20044;-72
2022/12/22 03:38:28;;;;;;;1.40;1.10;;;;;;;9.19;59.52;99826.84;5056591;28;20094;-72
2022/12/22 03:40:56;;;;;;;1.85;1.10;;;;;;;9.19;59.83;99822.25;5043648;28;20056;-72
2022/12/22 03:49:11;;;;;;;1.70;1.00;;;;;;;9.19;59.72;99819.53;5056146;28;20051;-72
2022/12/22 03:51:42;;;;;;;1.90;1.05;;;;;;;9.19;59.58;99818.66;5038688;28;20071;-72
2022/12/22 03:54:11;;;;;;;2.03;1.20;;;;;;;9.22;59.81;99821.97;5057949;28;20176;-72
2022/12/22 03:56:40;;;;;;;1.40;1.00;;;;;;;9.23;59.49;99820.94;5051480;28;20482;-72
2022/12/22 03:59:08;;;;;;;2.97;1.23;;;;;;;9.24;59.95;99816.34;5037848;28;20124;-72
2022/12/22 04:01:41;;;;;;;1.38;1.00;;;;;;;9.26;59.65;99811.56;5040692;28;20052;-72
2022/12/22 04:04:12;;;;;;;1.67;0.90;;;;;;;9.26;59.95;99787.88;5037821;28;20393;-72
2022/12/22 04:06:42;;;;;;;2.05;1.10;;;;;;;9.26;60.15;99808.84;5056431;28;20106;-72
2022/12/22 04:09:10;;;;;;;2.03;1.08;;;;;;;9.26;59.90;99796.06;5059674;28;20161;-72
2022/12/22 04:14:23;;;;;;;2.03;1.08;;;;;;;9.25;59.87;99783.41;5051967;28;20342;-72
2022/12/22 04:17:00;;;;;;;2.67;1.20;;;;;;;9.26;59.64;99779.69;5055223;28;20106;-72
2022/12/22 04:19:29;;;;;;;1.95;0.93;;;;;;;9.27;59.73;99775.94;5045811;28;20435;-72
2022/12/22 04:21:57;;;;;;;1.60;0.95;;;;;;;9.26;59.90;99779.69;5064145;28;20040;-72
2022/12/22 04:24:25;;;;;;;2.47;1.13;;;;;;;9.27;59.98;99781.41;5058565;28;20068;-72
2022/12/22 04:26:53;;;;;;;1.92;1.00;;;;;;;9.28;60.37;99774.06;5041154;28;20047;-72
2022/12/22 04:29:21;;;;;;;1.45;0.95;;;;;;;9.27;59.86;99775.06;5040938;28;20052;-72
2022/12/22 04:31:49;;;;;;;1.98;1.30;;;;;;;9.28;59.86;99769.47;5029470;28;20079;-71
2022/12/22 04:34:17;;;;;;;1.65;1.10;;;;;;;9.28;59.92;99765.88;5065362;28;20044;-71
2022/12/22 04:36:46;;;;;;;3.30;1.50;;;;;;;9.30;59.77;99763.88;5033622;28;20113;-72
2022/12/22 04:39:14;;;;;;;2.38;1.10;;;;;;;9.29;60.13;99759.41;5057544;28;20040;-71
2022/12/22 04:41:43;;;;;;;1.60;1.20;;;;;;;9.29;60.11;99759.41;5048306;28;20136;-72
2022/12/22 04:44:11;;;;;;;2.03;1.20;;;;;;;9.29;60.21;99752.09;5051958;28;20052;-72
2022/12/22 04:46:39;;;;;;;2.10;1.30;;;;;;;9.29;60.18;99749.34;5028462;28;20136;-72
2022/12/22 04:49:07;;;;;;;2.35;1.25;;;;;;;9.31;60.36;99754.66;5056512;28;20040;-72
2022/12/22 04:51:34;;;;;;;3.63;1.38;;;;;;;9.31;60.23;99755.53;5057245;28;20051;-72
2022/12/22 04:54:04;;;;;;;2.60;1.40;;;;;;;9.33;59.94;99749.91;5045511;28;20040;-71
2022/12/22 04:56:31;;;;;;;2.33;1.35;;;;;;;9.31;59.87;99755.53;5062930;28;20444;-72
2022/12/22 04:58:59;;;;;;;1.85;1.13;;;;;;;9.34;60.20;99748.88;5061431;28;20044;-72
2022/12/22 05:01:28;;;;;;;2.72;1.50;;;;;;;9.33;60.11;99750.75;5055942;28;20101;-71
2022/12/22 05:03:56;;;;;;;2.25;1.25;;;;;;;9.34;60.13;99749.75;5040778;28;20754;-71
2022/12/22 05:06:23;;;;;;;2.72;1.60;;;;;;;9.34;60.24;99747.00;5057798;28;20051;-71
2022/12/22 05:08:51;;;;;;;2.83;1.60;;;;;;;9.35;59.94;99750.59;5064471;28;20036;-71
2022/12/22 05:11:21;;;;;;;2.67;1.55;;;;;;;9.36;59.85;99747.72;5057957;28;20071;-71
2022/12/22 05:13:49;;;;;;;2.75;1.52;;;;;;;9.34;60.28;99741.53;5032249;28;20053;-71
2022/12/22 05:16:17;;;;;;;3.03;1.55;;;;;;;9.36;59.65;99747.72;5037579;28;20051;-73
2022/12/22 05:18:45;;;;;;;3.13;1.60;;;;;;;9.35;60.02;99743.28;5059538;28;20090;-72
2022/12/22 05:21:16;;;;;;;2.88;1.60;;;;;;;9.36;60.06;99744.13;5034380;28;20598;-71
2022/12/22 05:23:44;;;;;;;3.22;1.65;;;;;;;9.35;60.28;99743.28;5061301;28;20037;-71
2022/12/22 05:26:14;;;;;;;3.03;1.60;;;;;;;9.36;59.86;99747.72;5061190;28;20041;-71
2022/12/22 05:28:45;;;;;;;2.92;1.70;;;;;;;9.38;60.03;99742.13;5036116;28;20517;-72
2022/12/22 05:31:16;;;;;;;2.70;1.67;;;;;;;9.39;59.76;99746.59;5060329;28;20120;-72
2022/12/22 05:33:44;;;;;;;4.18;1.70;;;;;;;9.38;60.34;99744.84;5064616;28;20052;-71
2022/12/22 05:36:11;;;;;;;2.65;1.50;;;;;;;9.38;60.49;99739.38;5043748;28;20476;-72
2022/12/22 05:38:40;;;;;;;3.08;1.60;;;;;;;9.40;60.22;99737.41;5037461;28;20078;-72
2022/12/22 05:41:08;;;;;;;4.88;1.80;;;;;;;9.40;60.49;99738.25;5066931;28;20552;-72
2022/12/22 05:43:36;;;;;;;2.80;1.70;;;;;;;9.42;60.07;99735.34;5043741;28;20064;-72
2022/12/22 05:46:08;;;;;;;3.95;2.28;;;;;;;9.44;60.14;99741.53;5038888;28;20534;-73
2022/12/22 05:48:37;;;;;;;3.33;1.77;;;;;;;9.42;60.41;99743.53;5065280;28;20524;-73
2022/12/22 05:51:07;;;;;;;3.60;2.00;;;;;;;9.44;60.26;99742.38;5056967;28;20056;-72
2022/12/22 05:53:35;;;;;;;3.50;1.90;;;;;;;9.46;60.41;99742.22;5059495;28;20119;-73
2022/12/22 05:56:04;;;;;;;3.53;1.88;;;;;;;9.48;60.04;99745.69;5065398;28;20055;-72
2022/12/22 05:58:32;;;;;;;3.50;2.00;;;;;;;9.48;60.43;99751.13;5057225;28;20150;-73
2022/12/22 06:01:01;;;;;;;3.45;1.83;;;;;;;9.51;60.25;99749.94;5043962;28;20080;-73
2022/12/22 06:03:30;;;;;;;3.65;2.08;;;;;;;9.53;59.95;99737.88;5045754;28;20051;-73
2022/12/22 06:05:58;;;;;;;4.22;2.20;;;;;;;9.53;60.07;99747.94;5042958;28;20056;-73
2022/12/22 06:08:27;;;;;;;3.83;2.10;;;;;;;9.54;59.94;99741.47;5044980;28;20037;-73
2022/12/22 06:10:55;;;;;;;3.60;2.22;;;;;;;9.54;60.35;99741.47;5050519;28;20134;-73
2022/12/22 06:13:24;;;;;;;3.17;2.10;;;;;;;9.55;60.05;99743.19;5062315;28;20037;-73
2022/12/22 06:15:52;;;;;;;3.20;2.00;;;;;;;9.55;60.05;99754.09;5070165;28;20068;-72
2022/12/22 06:18:20;;;;;;;4.18;2.10;;;;;;;9.56;60.39;99755.81;5069160;28;20036;-73
2022/12/22 06:20:51;;;;;;;4.05;2.47;;;;;;;9.57;60.18;99747.47;5083533;28;20270;-73
2022/12/22 06:23:19;;;;;;;3.88;2.40;;;;;;;9.57;60.03;99752.94;5052844;28;20052;-73
2022/12/22 06:25:54;;;;;;;3.60;2.30;;;;;;;9.60;60.02;99757.22;5059895;28;20046;-73
2022/12/22 06:28:22;;;;;;;4.22;2.20;;;;;;;9.59;60.11;99755.50;5066295;28;20066;-73
2022/12/22 06:30:50;;;;;;;3.63;2.15;;;;;;;9.59;59.89;99760.97;5081728;28;20051;-73
2022/12/22 06:33:17;;;;;;;3.53;2.35;;;;;;;9.60;60.23;99762.69;5074719;28;20349;-71
2022/12/22 06:35:45;;;;;;;4.15;2.03;;;;;;;9.60;59.72;99763.53;5056039;28;20032;-73
2022/12/22 06:38:21;;;;;;;3.20;2.08;;;;;;;9.60;60.20;99762.69;5053186;28;20032;-73
2022/12/22 06:40:49;;;;;;;3.70;2.45;;;;;;;9.60;59.81;99768.16;5067096;28;20170;-73
2022/12/22 06:43:16;;;;;;;5.55;3.05;;;;;;;9.61;60.14;99781.66;5055786;28;20047;-72
2022/12/22 06:45:44;;;;;;;4.22;2.70;;;;;;;9.60;60.21;99771.75;5037075;28;20048;-74
2022/12/22 06:48:14;;;;;;;4.13;2.60;;;;;;;9.60;60.28;99779.06;5060411;28;20045;-74
2022/12/22 06:50:46;;;;;;;3.92;2.50;;;;;;;9.59;60.00;99775.47;5012019;28;20112;-74
2022/12/22 06:53:13;;;;;;;3.80;2.85;;;;;;;9.62;59.73;99785.25;5063623;28;20036;-73
2022/12/22 06:55:43;;;;;;;4.18;2.40;;;;;;;9.63;60.17;99792.44;5050202;28;20501;-72
2022/12/22 06:58:11;;;;;;;4.93;2.80;;;;;;;9.61;59.91;99789.84;5043062;28;20040;-72
2022/12/22 07:00:38;;;;;;;5.20;2.92;;;;;;;9.62;60.07;99798.91;5057833;28;20465;-69
2022/12/22 07:03:06;;;;;;;4.18;2.83;;;;;;;9.61;60.16;99798.03;5065752;28;20091;-72
2022/12/22 07:05:35;;;;;;;3.63;2.65;;;;;;;9.63;60.38;99796.03;5061745;28;20444;-70
2022/12/22 07:08:02;;;;;;;5.47;2.90;;;;;;;9.63;59.94;99801.50;5038722;28;20036;-73
2022/12/22 07:13:23;;;;;;;4.15;2.78;;;;;;;9.64;60.20;99807.81;5035790;28;20053;-70
2022/12/22 07:15:52;;;;;;;4.75;2.65;;;;;;;9.64;59.84;99810.53;5042531;28;20128;-71
2022/12/22 07:18:29;;;;;;;4.18;2.70;;;;;;;9.65;59.77;99812.28;5046362;28;20045;-71
2022/12/22 07:20:57;;;;;;;3.78;2.50;;;;;;;9.65;60.16;99826.78;5051955;28;20040;-72
2022/12/22 07:23:25;;;;;;;4.43;2.67;;;;;;;9.66;60.21;99828.47;5046454;28;20063;-72
2022/12/22 07:25:53;;;;;;;4.50;3.05;;;;;;;9.67;60.30;99835.66;5045275;28;20037;-73
2022/12/22 07:28:23;;;;;;;3.97;2.50;;;;;;;9.69;60.13;99838.25;5061474;28;20048;-71
2022/12/22 07:30:51;;;;;;;4.88;3.30;;;;;;;9.69;59.94;99843.72;5057301;28;20357;-72
2022/12/22 07:33:19;;;;;;;4.78;2.90;;;;;;;9.68;59.87;99853.78;5049909;28;20049;-72
2022/12/22 07:35:47;;;;;;;4.55;3.03;;;;;;;9.70;59.86;99864.56;5048549;28;20048;-71
2022/12/22 07:38:15;;;;;;;4.32;2.80;;;;;;;9.70;59.90;99865.44;5043947;28;20044;-72
2022/12/22 07:40:43;;;;;;;5.68;3.25;;;;;;;9.71;60.24;99872.63;5034265;28;20040;-72
2022/12/22 07:43:17;;;;;;;5.07;3.50;;;;;;;9.71;60.22;99894.47;5059124;28;20501;-71
2022/12/22 07:45:46;;;;;;;5.75;3.22;;;;;;;9.73;59.73;99897.06;5059726;28;20048;-72
2022/12/22 07:51:03;;;;;;;5.20;2.90;;;;;;;9.74;60.16;99923.38;5058391;28;20131;-72
2022/12/22 07:53:31;;;;;;;5.18;3.10;;;;;;;9.72;59.90;99914.47;5039356;28;20049;-72
2022/12/22 07:56:02;;;;;;;5.50;3.45;;;;;;;9.75;59.85;99920.47;5057669;28;20048;-71
2022/12/22 07:58:30;;;;;;;5.05;3.08;;;;;;;9.73;59.50;99918.91;5062041;28;20076;-72
2022/12/22 08:01:01;;;;;;;5.35;3.10;;;;;;;9.75;59.94;99922.34;5058376;28;20463;-72
2022/12/22 08:03:29;;;;;;;5.22;3.20;;;;;;;9.72;59.60;99926.25;5057160;28;20037;-71
2022/12/22 08:05:57;;;;;;;5.53;3.42;;;;;;;9.72;59.76;99928.97;5044761;28;20037;-72
2022/12/22 08:08:25;;;;;;;5.45;3.40;;;;;;;9.73;59.95;99935.31;5053063;28;20048;-73
2022/12/22 08:10:52;;;;;;;6.50;3.75;;;;;;;9.71;59.69;99938.19;5040556;28;20072;-73
2022/12/22 08:13:20;;;;;;;5.50;3.67;;;;;;;9.71;59.54;99935.47;5055338;28;20478;-71
2022/12/22 08:15:48;;;;;;;5.85;3.60;;;;;;;9.72;60.15;99936.31;5051180;23;20104;-70
2022/12/22 08:18:17;;;;;;;5.85;3.67;;;;;;;9.73;59.61;99943.50;5025483;28;20124;-70
2022/12/22 08:20:49;;;;;;;6.00;3.72;;;;;;;9.73;60.02;99948.97;5022759;28;20541;-70
2022/12/22 08:23:17;;;;;;;6.78;4.00;;;;;;;9.71;59.62;99953.72;5018680;28;20049;-70
2022/12/22 08:25:47;;;;;;;6.15;3.90;;;;;;;9.72;59.62;99966.38;5027593;28;20532;-70
2022/12/22 08:28:16;;;;;;;6.57;4.18;;;;;;;9.71;60.14;99972.84;5036151;28;20048;-70
2022/12/22 08:30:45;;;;;;;6.28;4.22;;;;;;;9.71;59.82;99987.38;5037472;28;20053;-71
2022/12/22 08:33:14;;;;;;;8.20;4.95;;;;;;;9.70;59.52;99993.84;5039065;28;20041;-69
2022/12/22 08:35:43;;;;;;;7.82;4.30;;;;;;;9.72;59.63;99990.97;5030808;28;20038;-69
2022/12/22 08:38:12;;;;;;;6.97;4.63;;;;;;;9.71;60.07;100011.97;5018080;28;20135;-69
2022/12/22 08:40:43;;;;;;;8.07;4.80;;;;;;;9.71;59.73;100011.97;5046007;28;20048;-69
2022/12/22 08:43:12;;;;;;;8.50;4.70;;;;;;;9.70;59.56;100023.03;5038498;28;20398;-69
2022/12/22 08:45:41;;;;;;;8.10;4.97;;;;;;;9.71;60.04;100024.75;5013523;28;20049;-69
2022/12/22 08:48:09;;;;;;;7.72;4.95;;;;;;;9.70;59.79;100029.34;5021301;28;20143;-69
2022/12/22 08:50:37;;;;;;;8.45;5.35;;;;;;;9.69;60.09;100030.38;5041522;28;20049;-69
2022/12/22 08:53:07;;;;;;;9.18;5.55;;;;;;;9.72;59.65;100037.41;5037467;28;20057;-69
2022/12/22 08:55:56;;;;;;;8.98;5.22;;;;;;;9.69;60.20;100035.84;5032777;28;20076;-70
2022/12/22 08:58:24;;;;;;;9.93;5.18;;;;;;;9.70;59.94;100047.63;5028224;28;20041;-69
2022/12/22 09:00:52;;;;;;;10.02;5.78;;;;;;;9.69;60.05;100046.75;5032588;28;20069;-69
2022/12/22 09:03:19;;;;;;;8.73;5.47;;;;;;;9.70;59.92;100053.09;5031653;28;20065;-69
2022/12/22 09:05:47;;;;;;;10.43;6.40;;;;;;;9.70;59.88;100047.63;5037518;28;20045;-70
2022/12/22 09:08:16;;;;;;;9.30;5.50;;;;;;;9.71;60.10;100054.81;5039844;28;20077;-69
2022/12/22 09:10:44;;;;;;;9.05;5.55;;;;;;;9.71;59.77;100063.88;5039465;28;20052;-69
2022/12/22 09:13:12;;;;;;;10.23;5.93;;;;;;;9.71;59.71;100061.13;5047137;28;20034;-68
2022/12/22 09:15:40;;;;;;;10.00;6.13;;;;;;;9.71;59.83;100077.53;5037479;28;20561;-69
2022/12/22 09:18:08;;;;;;;10.35;6.20;;;;;;;9.73;59.63;100082.84;5040193;28;20719;-69
2022/12/22 09:20:36;;;;;;;11.00;6.13;;;;;;;9.73;60.15;100091.06;5048602;28;20048;-69
2022/12/22 09:23:03;;;;;;;11.30;6.30;;;;;;;9.73;59.81;100091.91;5039834;28;20054;-69
2022/12/22 09:25:34;;;;;;;9.13;5.93;;;;;;;9.76;60.01;100104.41;5045044;28;20055;-69
2022/12/22 09:28:02;;;;;;;10.73;6.07;;;;;;;9.74;59.77;100112.75;5023727;28;20052;-69
2022/12/22 09:30:30;;;;;;;10.15;5.82;;;;;;;9.74;59.98;100112.75;5035984;28;20405;-68
2022/12/22 09:32:58;;;;;;;10.68;6.90;;;;;;;9.74;59.55;100118.22;5034095;28;20068;-69
2022/12/22 09:35:26;;;;;;;12.43;6.60;;;;;;;9.74;59.67;100109.19;5045551;28;20056;-69
2022/12/22 09:37:54;;;;;;;9.70;6.18;;;;;;;9.75;60.02;100113.59;5039771;28;20087;-70
2022/12/22 09:40:23;;;;;;;10.15;6.45;;;;;;;9.75;60.00;100113.59;5035949;28;20086;-68
2022/12/22 09:42:53;;;;;;;9.10;6.15;;;;;;;9.76;59.91;100118.94;5042294;28;20400;-70
2022/12/22 09:45:21;;;;;;;9.07;5.88;;;;;;;9.75;59.72;100124.53;5032827;28;20057;-69
2022/12/22 09:47:52;;;;;;;10.02;6.30;;;;;;;9.77;60.21;100147.13;5033423;28;20448;-69
2022/12/22 09:50:23;;;;;;;10.43;6.00;;;;;;;9.78;60.20;100149.72;5034371;28;20518;-70
2022/12/22 09:52:53;;;;;;;9.52;5.88;;;;;;;9.78;59.86;100152.44;5030964;28;20294;-69
2022/12/22 09:55:37;;;;;;;10.30;6.28;;;;;;;9.81;60.30;100156.75;5029192;28;20069;-70
2022/12/22 09:58:16;;;;;;;9.90;5.90;;;;;;;9.81;60.16;100162.22;5032848;28;20537;-70
2022/12/22 10:01:00;;;;;;;10.45;6.32;;;;;;;9.79;60.20;100170.56;5041002;28;20055;-69
2022/12/22 10:03:34;;;;;;;9.15;5.78;;;;;;;9.80;59.69;100177.75;5027906;28;20041;-70
2022/12/22 10:06:10;;;;;;;9.13;5.97;;;;;;;9.81;59.71;100181.38;5042453;28;20551;-70
2022/12/22 10:08:40;;;;;;;10.02;6.10;;;;;;;9.79;60.04;100186.97;5042591;28;20141;-69
2022/12/22 10:11:12;;;;;;;10.48;6.22;;;;;;;9.80;59.78;100190.56;5042767;28;20041;-69
2022/12/22 10:13:41;;;;;;;10.85;6.80;;;;;;;9.79;59.82;100200.63;5038439;28;20042;-70
2022/12/22 10:16:21;;;;;;;9.82;6.10;;;;;;;9.81;59.43;100195.03;5043250;28;20051;-70
2022/12/22 10:18:58;;;;;;;11.45;6.25;;;;;;;9.79;59.37;100188.84;5048335;28;20049;-70
2022/12/22 10:21:28;;;;;;;11.13;6.53;;;;;;;9.77;59.74;100191.72;5034434;28;20034;-71
2022/12/22 10:23:56;;;;;;;9.55;6.40;;;;;;;9.78;59.54;100192.56;5030848;28;20133;-74
2022/12/22 10:26:27;;;;;;;8.93;5.93;;;;;;;9.78;59.78;100190.69;5041730;28;20041;-70
2022/12/22 10:29:03;;;;;;;11.05;6.88;;;;;;;9.79;59.83;100203.38;5046148;28;20049;-68
2022/12/22 10:31:33;;;;;;;10.95;6.85;;;;;;;9.80;60.04;100204.22;5046555;28;20115;-69
2022/12/22 10:34:12;;;;;;;10.30;6.57;;;;;;;9.81;59.91;100204.09;5035321;28;20596;-70
2022/12/22 10:36:42;;;;;;;12.27;7.60;;;;;;;9.80;59.85;100210.56;5041778;28;20045;-70
2022/12/22 10:39:11;;;;;;;10.90;7.22;;;;;;;9.82;59.73;100204.94;5020300;28;20048;-69
2022/12/22 10:41:44;;;;;;;10.80;6.65;;;;;;;9.83;59.45;100209.38;5037911;28;20063;-68
2022/12/22 10:44:23;;;;;;;12.63;7.45;;;;;;;9.84;59.69;100219.31;5030736;28;20091;-68
2022/12/22 10:46:53;;;;;;;12.07;7.55;;;;;;;9.82;59.45;100219.44;5037378;28;20482;-69
2022/12/22 10:49:23;;;;;;;12.15;6.85;;;;;;;9.83;59.41;100221.19;5025650;28;20037;-69
2022/12/22 10:51:54;;;;;;;13.15;7.90;;;;;;;9.84;59.86;100224.78;5039440;28;20029;-69
2022/12/22 10:54:34;;;;;;;14.77;8.48;;;;;;;9.85;59.53;100232.84;5047776;28;20048;-70
2022/12/22 10:57:06;;;;;;;15.95;9.82;;;;;;;9.84;59.66;100228.38;5040141;28;20095;-69
2022/12/22 10:59:48;;;;;;;16.77;9.73;;;;;;;9.88;59.82;100234.44;5047934;28;20047;-69
2022/12/22 11:02:30;;;;;;;16.73;9.27;;;;;;;9.89;60.22;100232.56;5045580;28;20071;-70
2022/12/22 11:05:05;;;;;;;16.90;9.30;;;;;;;9.91;59.62;100244.19;5040919;28;20046;-70
2022/12/22 11:07:35;;;;;;;17.70;9.98;;;;;;;9.94;60.32;100252.09;5026965;28;20063;-69
2022/12/22 11:10:15;;;;;;;15.77;9.35;;;;;;;9.97;59.78;100260.91;5047362;28;20049;-69
2022/12/22 11:12:56;;;;;;;15.38;8.80;;;;;;;10.00;60.37;100255.13;5028770;28;20079;-69
2022/12/22 11:15:34;;;;;;;14.45;8.35;;;;;;;10.04;60.57;100253.84;5029800;28;20331;-70
2022/12/22 11:18:13;;;;;;;13.27;8.40;;;;;;;10.09;60.66;100267.06;5045773;28;20053;-70
2022/12/22 11:20:51;;;;;;;12.98;8.35;;;;;;;10.14;60.13;100262.03;5044399;28;20216;-70
2022/12/22 11:23:29;;;;;;;13.85;7.43;;;;;;;10.19;60.73;100278.84;5045495;28;20091;-69
2022/12/22 11:26:07;;;;;;;13.07;8.10;;;;;;;10.23;60.32;100272.09;5039394;28;20048;-69
2022/12/22 11:28:51;;;;;;;12.85;7.97;;;;;;;10.29;60.12;100270.63;5037569;28;20119;-70
2022/12/22 11:31:39;;;;;;;13.05;8.23;;;;;;;10.33;59.51;100281.13;5033893;28;20072;-70
2022/12/22 11:34:22;;;;;;;13.13;8.30;;;;;;;10.35;59.81;100284.56;5043784;28;20128;-69
2022/12/22 11:36:57;;;;;;;;;;;;;;;10.11;60.62;100285.03;5024764;28;20045;-70
2022/12/22 11:39:36;;;;;;;11.18;6.28;;;;;;;10.41;60.13;100289.44;5035631;28;19928;-70
2022/12/22 11:42:21;;;;;;;12.73;8.20;;;;;;;10.49;60.28;100281.38;5041106;28;20051;-70
2022/12/22 11:44:59;;;;;;;11.80;7.68;;;;;;;10.56;60.06;100287.16;5040651;28;20050;-70
2022/12/22 11:47:40;;;;;;;11.18;7.13;;;;;;;10.65;59.91;100288.16;5028628;28;20497;-70
2022/12/22 11:50:37;;;;;;;12.57;7.55;;;;;;;10.67;59.57;100292.44;5040332;28;20044;-70
2022/12/22 11:53:50;;;;;;;9.10;6.10;;;;;;;10.75;59.02;100302.66;5032871;28;20595;-70
2022/12/22 11:56:23;;;;;;;10.52;6.82;;;;;;;10.82;59.11;100310.09;5040885;28;20461;-69
2022/12/22 11:59:08;;;;;;;11.15;6.50;;;;;;;10.87;58.23;100312.41;5046539;28;20052;-70
2022/12/22 12:01:54;;;;;;;11.88;7.53;;;;;;;10.88;57.99;100308.66;5025198;28;20049;-70
2022/12/22 12:04:37;;;;;;;12.07;7.28;;;;;;;10.90;58.32;100307.47;5041179;28;20123;-70
2022/12/22 12:07:22;;;;;;;12.05;6.80;;;;;;;10.92;58.36;100316.41;5037528;28;20045;-70
2022/12/22 12:10:03;;;;;;;10.95;6.78;;;;;;;10.92;57.76;100310.94;5045241;28;20045;-70
2022/12/22 12:12:41;;;;;;;11.18;6.85;;;;;;;10.92;57.34;100313.69;5042575;28;20033;-69
2022/12/22 12:15:22;;;;;;;10.48;7.40;;;;;;;10.92;57.96;100310.94;5039191;28;20108;-70
2022/12/22 12:18:12;;;;;;;12.32;7.00;;;;;;;10.92;57.34;100319.16;5038954;28;20045;-70
2022/12/22 12:20:51;;;;;;;12.70;7.55;;;;;;;10.91;57.68;100322.91;5037373;28;20041;-70
2022/12/22 12:23:39;;;;;;;15.93;9.45;;;;;;;10.91;57.85;100320.16;5037326;28;20061;-70
2022/12/22 12:26:15;;;;;;;13.77;8.52;;;;;;;10.91;57.82;100322.91;5041657;28;20052;-69
2022/12/22 12:28:52;;;;;;;13.10;9.13;;;;;;;10.91;57.28;100324.78;5038500;28;20057;-70
2022/12/22 12:31:24;;;;;;;14.13;9.05;;;;;;;10.92;57.45;100337.47;5042534;28;20116;-70
2022/12/22 12:33:57;;;;;;;19.63;11.23;;;;;;;10.93;57.84;100336.44;5046140;28;20497;-70
2022/12/22 12:36:39;;;;;;;14.45;9.10;;;;;;;10.89;57.25;100333.16;5037600;28;20049;-69
2022/12/22 12:39:16;;;;;;;26.13;12.77;;;;;;;10.92;57.21;100326.50;5037379;28;20044;-70
2022/12/22 12:41:58;;;;;;;27.05;13.60;;;;;;;10.93;56.72;100320.03;5038490;28;20033;-70
2022/12/22 12:44:30;;;;;;;21.35;12.10;;;;;;;10.91;57.54;100322.91;5016465;28;20132;-69
2022/12/22 12:47:07;;;;;;;18.65;10.55;;;;;;;10.89;56.69;100319.47;5036572;28;20061;-70
2022/12/22 12:50:23;;;;;;;18.05;9.48;;;;;;;10.82;55.51;100328.41;5029062;28;20050;-70
2022/12/22 12:53:08;;;;;;;19.77;10.10;;;;;;;10.86;56.22;100316.16;5029053;28;20467;-70
2022/12/22 12:56:00;;;;;;;16.27;8.73;;;;;;;10.83;55.63;100319.19;5038078;28;20143;-70
2022/12/22 12:58:49;;;;;;;12.73;7.38;;;;;;;10.82;55.78;100314.72;5027517;28;20520;-70
2022/12/22 13:01:54;;;;;;;12.38;6.75;;;;;;;10.80;56.09;100316.75;5041203;28;20041;-70
2022/12/22 13:04:56;;;;;;;12.10;7.20;;;;;;;10.77;55.98;100319.78;5033362;28;20061;-69
2022/12/22 13:07:57;;;;;;;16.05;8.68;;;;;;;10.77;56.15;100311.56;5031815;28;20056;-69
2022/12/22 13:10:26;;;;;;;16.95;9.50;;;;;;;10.77;56.81;100308.84;5034577;28;20049;-69
2022/12/22 13:12:56;;;;;;;20.98;10.55;;;;;;;10.77;56.72;100301.50;5036292;28;20106;-69
2022/12/22 13:15:30;;;;;;;15.50;9.70;;;;;;;10.80;55.95;100311.28;5029435;28;20106;-69
2022/12/22 13:17:58;;;;;;;23.63;10.88;;;;;;;10.77;56.67;100312.44;5033288;28;20041;-69
2022/12/22 13:20:31;;;;;;;19.67;10.38;;;;;;;10.79;56.19;100315.91;5033244;28;20517;-69
2022/12/22 13:23:01;;;;;;;19.40;10.43;;;;;;;10.76;56.29;100318.06;5045920;28;20155;-69
2022/12/22 13:25:40;;;;;;;18.52;9.45;;;;;;;10.79;55.60;100317.78;5020076;28;20052;-69
2022/12/22 13:28:14;;;;;;;16.15;9.57;;;;;;;10.77;55.95;100317.06;5041630;28;20276;-69
2022/12/22 13:30:47;;;;;;;17.58;9.18;;;;;;;10.75;55.96;100317.19;5043421;28;20076;-69
2022/12/22 13:33:17;;;;;;;19.58;11.27;;;;;;;10.71;56.19;100318.53;5030295;28;20259;-69
2022/12/22 13:35:47;;;;;;;17.73;9.18;;;;;;;10.71;55.63;100318.53;5017113;28;20049;-69
2022/12/22 13:38:29;;;;;;;17.85;9.85;;;;;;;10.70;55.54;100318.66;5009281;28;20045;-69
2022/12/22 13:40:59;;;;;;;14.48;7.78;;;;;;;10.68;55.79;100327.00;5011828;28;20046;-69
2022/12/22 13:43:30;;;;;;;14.20;7.78;;;;;;;10.66;55.90;100323.56;5034633;28;20494;-69
2022/12/22 13:46:01;;;;;;;13.15;7.32;;;;;;;10.64;55.91;100327.47;5032134;28;20044;-69
2022/12/22 13:48:37;;;;;;;13.48;7.95;;;;;;;10.64;55.08;100330.22;5019500;28;20052;-69
2022/12/22 13:51:17;;;;;;;15.13;8.48;;;;;;;10.58;55.69;100337.97;5038435;28;20054;-69
2022/12/22 13:53:49;;;;;;;21.40;11.10;;;;;;;10.59;55.79;100342.44;5046801;28;20036;-68
2022/12/22 13:56:39;;;;;;;15.57;9.45;;;;;;;10.57;55.12;100335.38;5041649;28;20072;-69
2022/12/22 13:59:27;;;;;;;15.68;8.27;;;;;;;10.55;55.27;100331.97;5042963;28;20091;-69
2022/12/22 14:02:01;;;;;;;19.15;10.35;;;;;;;10.54;55.02;100333.81;5036796;28;20037;-68
2022/12/22 14:04:30;;;;;;;17.95;9.60;;;;;;;10.52;55.19;100332.19;5035699;28;20489;-69
2022/12/22 14:07:10;;;;;;;17.45;9.23;;;;;;;10.54;54.69;100341.16;5039806;28;20042;-69
2022/12/22 14:09:42;;;;;;;18.88;8.70;;;;;;;10.49;55.59;100327.00;5040759;28;20041;-69
2022/12/22 14:12:15;;;;;;;17.75;8.65;;;;;;;10.49;55.59;100335.22;5041319;28;20120;-69
2022/12/22 14:14:45;;;;;;;15.18;8.55;;;;;;;10.49;55.27;100336.09;5037472;28;20048;-70
2022/12/22 14:17:22;;;;;;;11.63;7.57;;;;;;;10.49;54.57;100321.53;5036132;23;20042;-73
2022/12/22 14:19:52;;;;;;;10.23;6.72;;;;;;;10.47;55.51;100329.06;5028533;28;20041;-73
2022/12/22 14:22:25;;;;;;;10.90;6.15;;;;;;;10.47;55.02;100334.53;5045065;28;20116;-73
2022/12/22 14:24:56;;;;;;;10.75;7.00;;;;;;;10.46;55.54;100333.66;5043977;28;20096;-73
2022/12/22 14:27:33;;;;;;;12.52;7.82;;;;;;;10.46;54.97;100343.75;5038033;28;20266;-73
2022/12/22 14:30:04;;;;;;;9.75;6.03;;;;;;;10.44;55.43;100334.81;5037417;28;21003;-73
2022/12/22 14:32:36;;;;;;;10.10;5.78;;;;;;;10.44;55.67;100341.16;5022367;28;20045;-73
2022/12/22 14:35:15;;;;;;;13.05;6.40;;;;;;;10.42;55.69;100339.56;5041031;28;20049;-72
2022/12/22 14:37:42;;;;;;;9.00;5.78;;;;;;;10.40;55.48;100323.28;5046899;28;20502;-74
2022/12/22 14:40:27;;;;;;;8.48;5.15;;;;;;;10.43;55.37;100333.94;5027740;28;20052;-74
2022/12/22 14:42:58;;;;;;;9.10;5.70;;;;;;;10.42;55.58;100331.34;5029168;28;20076;-74
2022/12/22 14:45:26;;;;;;;8.88;5.97;;;;;;;10.40;56.00;100336.97;5036990;28;20047;-73
2022/12/22 14:47:56;;;;;;;9.65;5.95;;;;;;;10.41;55.79;100329.63;5035524;28;20041;-74
2022/12/22 14:50:26;;;;;;;8.88;5.10;;;;;;;10.41;55.19;100329.63;5022225;28;20069;-71
2022/12/22 14:52:55;;;;;;;8.70;4.60;;;;;;;10.40;55.45;100319.72;5045947;28;20079;-73
2022/12/22 14:55:28;;;;;;;6.75;3.90;;;;;;;10.40;54.70;100315.06;5036112;28;20115;-72
2022/12/22 14:58:01;;;;;;;6.25;3.47;;;;;;;10.38;55.10;100314.38;5043619;28;20440;-72
2022/12/22 15:00:34;;;;;;;5.93;3.63;;;;;;;10.36;55.46;100310.06;5039176;28;20045;-73
2022/12/22 15:03:05;;;;;;;5.15;3.38;;;;;;;10.36;54.97;100304.59;5032423;28;20042;-72
2022/12/22 15:05:36;;;;;;;5.88;3.40;;;;;;;10.36;55.10;100299.13;5029905;28;20045;-73
2022/12/22 15:08:06;;;;;;;5.53;3.50;;;;;;;10.34;55.75;100293.78;5025149;28;20533;-72
2022/12/22 15:10:42;;;;;;;5.90;3.60;;;;;;;10.32;55.26;100290.31;5037568;28;20124;-72
2022/12/22 15:13:18;;;;;;;5.72;3.50;;;;;;;10.34;54.88;100279.25;5037926;28;20658;-73
2022/12/22 15:15:46;;;;;;;6.55;3.95;;;;;;;10.31;55.53;100285.03;5040990;28;20037;-72
2022/12/22 15:18:15;;;;;;;5.28;3.55;;;;;;;10.32;55.72;100284.03;5028350;28;20063;-75
2022/12/22 15:20:43;;;;;;;6.13;3.72;;;;;;;10.30;55.59;100281.44;5021286;28;20045;-72
2022/12/22 15:23:16;;;;;;;5.82;3.65;;;;;;;10.32;55.14;100282.13;5045942;28;20037;-73
2022/12/22 15:25:44;;;;;;;;;;;;;;;10.04;56.16;100278.44;5031606;28;22163;-73
2022/12/22 15:28:13;;;;;;;6.10;3.50;;;;;;;10.27;55.63;100269.91;5026564;28;19920;-73
2022/12/22 15:30:41;;;;;;;5.63;3.97;;;;;;;10.28;55.60;100264.28;5018934;28;20125;-73
2022/12/22 15:33:14;;;;;;;6.85;4.07;;;;;;;10.30;55.15;100254.06;5042863;28;20037;-72
2022/12/22 15:35:42;;;;;;;5.72;3.80;;;;;;;10.27;55.78;100259.84;5040617;28;20548;-73